Time;durP1;ratioP1;P1;durP2;ratioP2;P2;SDS_P1;SDS_P2;PMS_P1;PMS_P2;Temp;Humidity;BMP_temperature;BMP_pressure;BME280_temperature;BME280_humidity;BME280_pressure;Samples;Min_cycle;Max_cycle;Signal;HPM_P1;HPM_P2
2023/11/30 00:01:42;;;;;;;9.70;8.70;;;;;;;2.20;65.77;94939.13;5084599;28;20241;-67
2023/11/30 00:04:08;;;;;;;10.20;9.13;;;;;;;2.17;66.29;94944.38;5085925;28;20185;-68
2023/11/30 00:06:38;;;;;;;10.10;9.00;;;;;;;2.15;66.04;94935.84;5085876;28;20346;-66
2023/11/30 00:09:03;;;;;;;10.20;8.70;;;;;;;2.04;66.50;94943.13;5086059;28;20169;-68
2023/11/30 00:11:29;;;;;;;22.13;8.90;;;;;;;2.01;66.72;94945.81;5085948;28;20408;-67
2023/11/30 00:13:54;;;;;;;15.97;9.37;;;;;;;2.17;66.71;94933.19;5085870;28;20197;-67
2023/11/30 00:16:20;;;;;;;9.13;8.10;;;;;;;2.19;66.45;94931.41;5085760;28;20203;-67
2023/11/30 00:18:45;;;;;;;13.50;9.63;;;;;;;2.09;66.39;94933.47;5086578;28;20577;-66
2023/11/30 00:21:10;;;;;;;12.80;9.23;;;;;;;2.13;66.55;94932.47;5086010;28;20198;-69
2023/11/30 00:23:36;;;;;;;10.33;9.23;;;;;;;2.08;66.71;94924.88;5085570;28;20197;-66
2023/11/30 00:26:01;;;;;;;11.53;9.60;;;;;;;2.06;66.45;94928.41;5084250;28;20245;-69
2023/11/30 00:28:27;;;;;;;13.77;8.87;;;;;;;2.04;66.67;94928.44;5085574;28;20181;-67
2023/11/30 00:30:52;;;;;;;13.70;10.37;;;;;;;2.05;66.47;94934.47;5084128;28;20166;-67
2023/11/30 00:33:17;;;;;;;12.13;8.70;;;;;;;2.12;66.45;94934.19;5077615;28;20557;-67
2023/11/30 00:35:43;;;;;;;10.37;8.37;;;;;;;2.10;66.23;94920.50;5065243;28;20197;-68
2023/11/30 00:38:08;;;;;;;11.20;7.53;;;;;;;1.83;67.37;94929.19;5065877;28;20190;-67
2023/11/30 00:40:33;;;;;;;10.27;9.00;;;;;;;1.79;67.47;94928.41;5065440;28;20214;-69
2023/11/30 00:42:59;;;;;;;10.03;8.07;;;;;;;1.98;67.00;94928.66;5065452;28;20186;-68
2023/11/30 00:45:24;;;;;;;11.37;10.17;;;;;;;2.03;66.47;94920.72;5065135;28;20194;-68
2023/11/30 00:47:49;;;;;;;10.30;8.90;;;;;;;1.92;66.95;94928.03;5065456;28;20262;-66
2023/11/30 00:50:15;;;;;;;11.37;8.63;;;;;;;1.89;67.30;94934.13;5073859;28;20543;-67
2023/11/30 00:52:40;;;;;;;11.00;8.70;;;;;;;1.69;67.48;94927.88;5085827;28;20223;-68
2023/11/30 00:55:06;;;;;;;14.37;9.03;;;;;;;1.68;68.08;94921.03;5085401;28;20197;-67
2023/11/30 00:57:31;;;;;;;17.20;10.07;;;;;;;1.80;67.89;94914.59;5086001;28;20201;-69
2023/11/30 01:00:00;;;;;;;12.70;9.40;;;;;;;1.73;67.63;94920.03;5086457;28;20565;-69
2023/11/30 01:02:26;;;;;;;21.43;9.40;;;;;;;1.81;67.63;94926.63;5089411;28;20201;-66
2023/11/30 01:04:51;;;;;;;10.00;8.80;;;;;;;1.92;67.32;94922.84;5089008;28;20465;-68
2023/11/30 01:07:16;;;;;;;10.20;8.30;;;;;;;1.84;67.15;94918.78;5089057;28;20173;-66
2023/11/30 01:09:42;;;;;;;9.47;8.37;;;;;;;1.84;67.12;94918.78;5089224;28;20252;-68
2023/11/30 01:12:07;;;;;;;9.80;8.80;;;;;;;1.92;66.62;94917.69;5088837;28;20240;-67
2023/11/30 01:14:33;;;;;;;9.50;8.50;;;;;;;1.69;67.30;94921.88;5088863;28;20610;-66
2023/11/30 01:16:58;;;;;;;10.80;8.93;;;;;;;1.83;66.65;94909.31;5088748;28;20197;-66
2023/11/30 01:19:24;;;;;;;10.70;7.80;;;;;;;1.75;66.99;94915.63;5088852;28;20746;-68
2023/11/30 01:21:49;;;;;;;10.67;9.27;;;;;;;1.87;66.59;94916.09;5088852;28;20250;-67
2023/11/30 01:24:14;;;;;;;10.87;8.63;;;;;;;2.02;66.25;94914.72;5088521;28;20197;-67
2023/11/30 01:26:40;;;;;;;11.20;9.47;;;;;;;1.98;66.19;94926.06;5088628;28;20205;-67
2023/11/30 01:29:05;;;;;;;12.03;9.27;;;;;;;2.03;66.12;94931.06;5088696;28;20177;-65
2023/11/30 01:31:31;;;;;;;9.57;8.40;;;;;;;1.98;66.28;94927.81;5088778;28;20537;-69
2023/11/30 01:33:56;;;;;;;12.90;8.87;;;;;;;1.99;66.11;94934.69;5074933;28;20192;-68
2023/11/30 01:36:22;;;;;;;9.03;8.13;;;;;;;1.83;66.43;94930.00;5068227;28;20239;-67
2023/11/30 01:38:47;;;;;;;10.70;9.37;;;;;;;2.00;66.06;94928.59;5068338;28;20197;-67
2023/11/30 01:41:12;;;;;;;11.30;8.50;;;;;;;2.08;65.90;94913.69;5066862;28;20251;-67
2023/11/30 01:43:38;;;;;;;13.20;9.30;;;;;;;1.93;66.07;94914.19;5068310;28;20178;-66
2023/11/30 01:46:04;;;;;;;11.87;9.17;;;;;;;1.83;66.55;94901.56;5068083;28;20979;-67
2023/11/30 01:48:31;;;;;;;10.83;9.73;;;;;;;1.87;66.30;94891.97;5068319;28;20170;-67
2023/11/30 01:50:57;;;;;;;9.33;8.30;;;;;;;1.97;65.99;94895.09;5083923;28;20404;-68
2023/11/30 01:53:22;;;;;;;11.70;9.47;;;;;;;1.94;66.10;94890.88;5090184;28;20423;-66
2023/11/30 01:55:48;;;;;;;9.97;8.27;;;;;;;1.93;66.40;94890.91;5088438;28;20260;-67
2023/11/30 01:58:14;;;;;;;13.00;10.03;;;;;;;1.86;66.75;94888.50;5088215;28;20173;-66
2023/11/30 02:00:41;;;;;;;12.20;10.20;;;;;;;1.96;66.83;94891.66;5088255;28;20451;-67
2023/11/30 02:03:06;;;;;;;13.40;9.83;;;;;;;1.96;66.95;94901.13;5087752;28;20264;-68
2023/11/30 02:05:32;;;;;;;11.67;10.47;;;;;;;2.08;66.60;94890.38;5087613;28;20562;-67
2023/11/30 02:07:57;;;;;;;12.83;9.87;;;;;;;2.05;66.89;94887.88;5088329;28;20177;-67
2023/11/30 02:10:23;;;;;;;14.10;10.60;;;;;;;1.85;67.63;94879.09;5088472;28;20472;-68
2023/11/30 02:12:49;;;;;;;17.83;10.60;;;;;;;2.04;66.87;94878.44;5085718;28;20247;-67
2023/11/30 02:15:15;;;;;;;14.80;10.17;;;;;;;2.06;67.09;94876.66;5094119;28;20212;-66
2023/11/30 02:17:40;;;;;;;12.27;9.50;;;;;;;2.03;67.07;94880.19;5093805;28;20246;-67
2023/11/30 02:20:06;;;;;;;17.10;8.53;;;;;;;2.02;67.33;94872.47;5091073;28;20550;-68
2023/11/30 02:22:32;;;;;;;12.57;9.60;;;;;;;1.95;67.62;94865.84;5089086;28;20165;-69
2023/11/30 02:24:57;;;;;;;16.70;10.53;;;;;;;2.05;67.47;94860.25;5088774;28;20197;-67
2023/11/30 02:27:22;;;;;;;10.30;9.30;;;;;;;2.01;67.36;94858.72;5087766;28;20193;-68
2023/11/30 02:29:48;;;;;;;11.57;9.30;;;;;;;2.06;67.33;94863.72;5087497;28;20516;-68
2023/11/30 02:32:13;;;;;;;10.47;9.40;;;;;;;2.10;67.23;94854.94;5087611;28;20246;-68
2023/11/30 02:34:38;;;;;;;14.53;10.03;;;;;;;2.12;67.26;94859.16;5068037;28;20833;-67
2023/11/30 02:37:04;;;;;;;12.57;8.73;;;;;;;2.11;67.11;94854.88;5067306;28;20178;-68
2023/11/30 02:39:29;;;;;;;10.43;9.27;;;;;;;2.10;67.29;94849.75;5067643;28;20198;-65
2023/11/30 02:41:54;;;;;;;11.87;9.67;;;;;;;2.14;66.62;94835.81;5068945;28;20311;-66
2023/11/30 02:44:20;;;;;;;12.87;8.80;;;;;;;2.00;67.18;94828.53;5068035;28;20186;-66
2023/11/30 02:46:45;;;;;;;13.63;9.40;;;;;;;1.98;67.34;94824.31;5067697;28;20174;-67
2023/11/30 02:49:10;;;;;;;13.53;8.70;;;;;;;2.03;67.37;94806.88;5069059;28;20166;-66
2023/11/30 02:51:36;;;;;;;18.73;8.83;;;;;;;1.85;67.58;94817.00;5087975;28;20204;-68
2023/11/30 02:54:02;;;;;;;10.70;9.03;;;;;;;1.76;68.23;94819.91;5087734;28;20690;-67
2023/11/30 02:56:27;;;;;;;12.00;9.77;;;;;;;1.79;68.16;94821.53;5085808;28;20173;-67
2023/11/30 02:58:52;;;;;;;11.97;8.40;;;;;;;1.92;67.59;94821.97;5087537;28;20204;-68
2023/11/30 03:01:18;;;;;;;12.23;9.33;;;;;;;1.93;67.68;94823.66;5086639;28;20162;-67
2023/11/30 03:03:43;;;;;;;11.17;9.40;;;;;;;2.02;67.22;94820.75;5087049;28;20257;-66
2023/11/30 03:06:11;;;;;;;10.73;9.47;;;;;;;1.92;67.43;94829.72;5086546;28;20591;-69
2023/11/30 03:08:36;;;;;;;11.90;9.47;;;;;;;1.98;66.82;94826.91;5086702;28;20188;-68
2023/11/30 03:11:01;;;;;;;11.80;10.07;;;;;;;1.92;67.20;94824.56;5086904;28;20422;-68
2023/11/30 03:13:27;;;;;;;9.57;8.57;;;;;;;1.93;66.91;94811.56;5086739;28;20169;-67
2023/11/30 03:15:52;;;;;;;13.30;8.97;;;;;;;1.90;67.10;94817.69;5086467;28;20710;-68
2023/11/30 03:18:18;;;;;;;11.60;8.77;;;;;;;1.98;67.18;94830.34;5086762;28;20539;-68
2023/11/30 03:20:43;;;;;;;10.00;8.60;;;;;;;1.96;66.94;94839.91;5086600;28;20280;-68
2023/11/30 03:23:09;;;;;;;16.27;9.13;;;;;;;2.03;67.19;94825.00;5086441;28;20628;-68
2023/11/30 03:25:35;;;;;;;9.90;8.27;;;;;;;1.98;67.38;94821.75;5086244;28;20249;-68
2023/11/30 03:28:02;;;;;;;11.40;9.50;;;;;;;1.96;67.43;94832.16;5086966;28;20264;-68
2023/11/30 03:30:27;;;;;;;13.40;8.70;;;;;;;1.90;67.47;94827.19;5086788;28;20427;-68
2023/11/30 03:32:53;;;;;;;10.63;8.50;;;;;;;2.19;66.69;94833.06;5081711;28;20444;-68
2023/11/30 03:35:18;;;;;;;14.97;9.80;;;;;;;1.93;67.29;94827.06;5067006;28;20599;-67
2023/11/30 03:37:43;;;;;;;11.93;9.00;;;;;;;1.65;68.15;94817.72;5068169;28;20170;-68
2023/11/30 03:40:10;;;;;;;12.20;8.63;;;;;;;1.79;68.19;94822.38;5067654;28;20837;-67
2023/11/30 03:42:36;;;;;;;13.33;9.97;;;;;;;1.76;68.34;94827.66;5072487;28;20178;-66
2023/11/30 03:45:01;;;;;;;11.03;9.50;;;;;;;1.77;68.23;94816.44;5081410;28;20435;-71
2023/11/30 03:47:26;;;;;;;13.47;10.67;;;;;;;1.73;68.29;94830.38;5084202;28;20482;-67
2023/11/30 03:49:52;;;;;;;12.93;10.27;;;;;;;1.71;68.53;94816.66;5081731;28;20207;-65
2023/11/30 03:52:17;;;;;;;11.83;10.10;;;;;;;1.56;69.04;94814.56;5085253;28;20166;-68
2023/11/30 03:54:42;;;;;;;12.80;8.93;;;;;;;1.79;68.61;94806.03;5086424;28;20193;-68
2023/11/30 03:57:08;;;;;;;10.93;9.80;;;;;;;1.20;70.18;94815.75;5086397;28;20564;-68
2023/11/30 03:59:33;;;;;;;12.77;10.90;;;;;;;1.10;71.51;94809.22;5087160;28;20201;-67
2023/11/30 04:01:59;;;;;;;11.57;10.07;;;;;;;1.33;70.39;94805.88;5086645;28;20719;-68
2023/11/30 04:04:24;;;;;;;12.90;10.07;;;;;;;1.42;69.73;94786.63;5086616;28;20189;-69
2023/11/30 04:06:50;;;;;;;12.07;10.43;;;;;;;1.54;69.85;94785.38;5086195;28;20332;-65
2023/11/30 04:09:16;;;;;;;12.93;10.43;;;;;;;1.69;69.38;94777.06;5086451;28;20231;-68
2023/11/30 04:11:41;;;;;;;12.73;10.17;;;;;;;1.67;68.90;94766.75;5086456;28;20412;-67
2023/11/30 04:14:07;;;;;;;12.63;9.90;;;;;;;1.55;69.09;94777.53;5086103;28;20192;-67
2023/11/30 04:16:34;;;;;;;13.97;11.60;;;;;;;1.26;70.33;94775.97;5086085;28;20178;-67
2023/11/30 04:19:00;;;;;;;13.57;10.10;;;;;;;1.37;69.95;94763.53;5086119;28;20197;-66
2023/11/30 04:21:25;;;;;;;12.23;9.90;;;;;;;1.23;70.88;94761.41;5086593;28;20404;-66
2023/11/30 04:23:51;;;;;;;11.97;9.90;;;;;;;1.16;71.32;94757.34;5086512;28;20464;-66
2023/11/30 04:26:16;;;;;;;17.93;9.97;;;;;;;1.11;71.00;94759.25;5085947;28;20551;-67
2023/11/30 04:28:42;;;;;;;15.90;10.00;;;;;;;1.19;70.95;94761.56;5085975;28;20181;-68
2023/11/30 04:31:07;;;;;;;15.33;12.00;;;;;;;1.13;71.56;94767.78;5085948;28;20170;-67
2023/11/30 04:33:33;;;;;;;14.70;10.73;;;;;;;1.19;71.27;94771.91;5075699;28;20173;-67
2023/11/30 04:35:58;;;;;;;12.80;9.90;;;;;;;1.32;70.77;94767.16;5067421;28;20610;-68
2023/11/30 04:38:24;;;;;;;14.07;10.43;;;;;;;1.23;71.26;94774.34;5069926;28;20170;-69
2023/11/30 04:40:49;;;;;;;17.57;9.30;;;;;;;1.33;70.34;94777.44;5069867;28;20198;-66
2023/11/30 04:43:14;;;;;;;11.20;8.63;;;;;;;1.32;70.34;94768.00;5070051;28;20593;-65
2023/11/30 04:45:40;;;;;;;12.47;9.73;;;;;;;1.36;70.57;94768.75;5069765;28;20217;-68
2023/11/30 04:48:05;;;;;;;13.13;9.93;;;;;;;1.70;69.43;94755.47;5069566;28;20797;-67
2023/11/30 04:50:30;;;;;;;13.10;9.60;;;;;;;1.78;69.33;94758.63;5081469;28;20477;-69
2023/11/30 04:52:57;;;;;;;11.17;9.70;;;;;;;1.78;69.26;94752.63;5090170;28;20594;-66
2023/11/30 04:55:22;;;;;;;11.83;10.03;;;;;;;1.86;68.33;94748.00;5090227;28;20544;-69
2023/11/30 04:57:48;;;;;;;13.73;11.13;;;;;;;1.76;68.85;94750.09;5089521;28;20411;-67
2023/11/30 05:00:14;;;;;;;14.03;9.77;;;;;;;1.67;69.22;94746.06;5090015;28;20201;-68
2023/11/30 05:02:52;;;;;;;14.40;10.87;;;;;;;0.95;71.75;94735.66;5089925;28;20415;-66
2023/11/30 05:05:22;;;;;;;12.40;10.83;;;;;;;1.06;72.47;94745.63;5089856;28;20427;-69
2023/11/30 05:07:48;;;;;;;12.97;10.40;;;;;;;1.10;71.94;94746.38;5089728;28;20411;-69
2023/11/30 05:10:13;;;;;;;12.10;10.17;;;;;;;1.40;70.69;94747.91;5089684;28;20403;-69
2023/11/30 05:12:39;;;;;;;11.73;8.40;;;;;;;1.27;70.91;94746.63;5060816;28;20416;-70
2023/11/30 05:15:05;;;;;;;11.40;10.20;;;;;;;1.33;71.22;94754.19;5065209;28;20214;-68
2023/11/30 05:17:30;;;;;;;13.37;10.50;;;;;;;1.33;70.87;94751.59;5067012;28;20644;-68
2023/11/30 05:19:57;;;;;;;12.20;10.20;;;;;;;1.42;70.69;94746.13;5066885;28;20198;-68
2023/11/30 05:22:22;;;;;;;15.10;10.03;;;;;;;1.26;70.84;94737.22;5066792;28;20181;-66
2023/11/30 05:24:50;;;;;;;13.60;9.77;;;;;;;1.18;71.67;94744.38;5066061;28;20424;-69
2023/11/30 05:27:15;;;;;;;11.80;10.50;;;;;;;1.05;72.34;94747.38;5066131;28;20192;-68
2023/11/30 05:29:41;;;;;;;11.57;10.47;;;;;;;1.60;70.58;94746.38;5066504;28;20412;-68
2023/11/30 05:32:06;;;;;;;17.00;10.40;;;;;;;1.55;70.26;94761.19;5066513;28;20166;-69
2023/11/30 05:34:31;;;;;;;14.13;10.20;;;;;;;1.26;70.91;94747.53;5067061;28;20185;-69
2023/11/30 05:36:57;;;;;;;11.53;9.37;;;;;;;1.12;71.95;94754.94;5066525;28;20641;-68
2023/11/30 05:39:22;;;;;;;11.80;9.33;;;;;;;1.14;72.59;94743.63;5067322;28;20225;-69
2023/11/30 05:41:48;;;;;;;11.67;9.83;;;;;;;1.38;70.63;94747.13;5069470;28;20255;-69
2023/11/30 05:44:13;;;;;;;14.47;10.03;;;;;;;1.53;69.89;94742.31;5065978;28;20201;-69
2023/11/30 05:46:39;;;;;;;11.70;10.47;;;;;;;1.69;70.16;94736.53;5051418;28;20420;-67
2023/11/30 05:49:04;;;;;;;14.73;10.43;;;;;;;1.78;69.16;94727.59;5066154;28;20166;-68
2023/11/30 05:51:30;;;;;;;12.00;9.03;;;;;;;1.62;69.88;94729.06;5069792;28;20170;-68
2023/11/30 05:53:55;;;;;;;14.27;10.33;;;;;;;1.48;70.25;94734.72;5067624;28;20194;-67
2023/11/30 05:56:20;;;;;;;14.67;9.17;;;;;;;1.16;70.90;94740.97;5065228;28;20170;-68
2023/11/30 05:58:46;;;;;;;12.20;9.20;;;;;;;1.39;70.39;94738.44;5065731;28;20170;-69
2023/11/30 06:01:11;;;;;;;14.20;10.30;;;;;;;1.62;69.56;94734.22;5056156;28;20646;-69
2023/11/30 06:03:36;;;;;;;10.00;8.73;;;;;;;1.44;70.17;94728.81;5056386;28;20236;-69
2023/11/30 06:06:02;;;;;;;11.87;9.20;;;;;;;1.22;71.25;94726.13;5063524;28;20166;-67
2023/11/30 06:08:28;;;;;;;16.50;11.77;;;;;;;1.33;70.35;94733.50;5060008;28;20531;-68
2023/11/30 06:10:53;;;;;;;11.03;9.50;;;;;;;1.48;69.96;94719.19;5055821;28;20503;-69
2023/11/30 06:13:18;;;;;;;11.03;8.53;;;;;;;1.47;70.42;94728.72;5054948;28;20185;-69
2023/11/30 06:15:45;;;;;;;14.87;10.47;;;;;;;1.71;69.76;94723.56;5060366;28;20635;-68
2023/11/30 06:18:10;;;;;;;12.07;10.20;;;;;;;1.92;68.88;94729.69;5068206;28;20187;-68
2023/11/30 06:20:36;;;;;;;14.17;9.07;;;;;;;1.59;69.30;94734.34;5069924;28;20448;-68
2023/11/30 06:23:01;;;;;;;13.50;9.63;;;;;;;1.19;70.49;94721.06;5060539;28;20189;-67
2023/11/30 06:25:27;;;;;;;11.63;9.90;;;;;;;1.39;70.88;94724.69;5065957;28;20204;-67
2023/11/30 06:27:52;;;;;;;12.43;10.10;;;;;;;1.20;71.87;94716.75;5065939;28;20166;-69
2023/11/30 06:30:18;;;;;;;11.73;9.50;;;;;;;1.47;71.27;94723.53;5065885;28;20163;-69
2023/11/30 06:32:43;;;;;;;16.70;10.60;;;;;;;1.72;70.03;94714.88;5062330;28;20197;-70
2023/11/30 06:35:08;;;;;;;15.50;9.20;;;;;;;1.94;69.33;94708.91;5045862;28;20191;-69
2023/11/30 06:37:34;;;;;;;12.63;10.30;;;;;;;1.83;69.67;94699.81;5044303;28;20724;-67
2023/11/30 06:39:59;;;;;;;18.73;9.63;;;;;;;1.84;69.33;94698.06;5045749;28;20254;-69
2023/11/30 06:42:24;;;;;;;11.93;9.33;;;;;;;1.80;69.35;94697.38;5046189;28;20166;-68
2023/11/30 06:44:50;;;;;;;11.67;10.30;;;;;;;1.82;69.74;94692.97;5047619;28;20708;-66
2023/11/30 06:47:15;;;;;;;10.77;9.67;;;;;;;1.61;70.08;94691.19;5044965;28;20174;-66
2023/11/30 06:49:41;;;;;;;15.60;10.83;;;;;;;1.75;70.43;94688.06;5055376;28;20166;-67
2023/11/30 06:52:06;;;;;;;14.13;11.00;;;;;;;1.36;71.55;94686.88;5085507;28;20285;-68
2023/11/30 06:54:32;;;;;;;13.40;10.50;;;;;;;1.41;71.40;94684.13;5085219;28;20658;-70
2023/11/30 06:56:57;;;;;;;14.57;11.10;;;;;;;1.41;71.47;94684.97;5085247;28;20177;-67
2023/11/30 06:59:22;;;;;;;13.67;11.23;;;;;;;1.61;70.84;94684.28;5084505;28;20208;-69
2023/11/30 07:01:49;;;;;;;12.00;10.23;;;;;;;1.29;71.24;94682.81;5084996;28;20273;-67
2023/11/30 07:04:14;;;;;;;12.50;10.87;;;;;;;1.32;71.55;94685.28;5084892;28;20193;-70
2023/11/30 07:06:40;;;;;;;13.33;10.40;;;;;;;1.01;72.42;94685.53;5085000;28;20416;-67
2023/11/30 07:09:05;;;;;;;12.87;11.20;;;;;;;1.38;71.58;94679.09;5085444;28;20173;-68
2023/11/30 07:11:31;;;;;;;12.43;10.80;;;;;;;1.57;71.35;94671.50;5085590;28;20166;-68
2023/11/30 07:13:56;;;;;;;11.50;9.83;;;;;;;1.65;70.51;94678.09;5085162;28;20213;-69
2023/11/30 07:16:22;;;;;;;11.23;10.13;;;;;;;1.55;71.01;94675.88;5085388;28;20230;-68
2023/11/30 07:18:47;;;;;;;10.70;9.60;;;;;;;1.51;71.42;94669.13;5086853;28;20173;-70
2023/11/30 07:21:14;;;;;;;15.70;11.13;;;;;;;1.74;70.50;94666.53;5086853;28;20161;-70
2023/11/30 07:23:39;;;;;;;14.03;10.03;;;;;;;1.55;70.82;94668.13;5086919;28;20189;-69
2023/11/30 07:26:13;;;;;;;16.47;12.50;;;;;;;1.73;70.44;94671.78;5087052;28;20929;-68
2023/11/30 07:28:39;;;;;;;16.57;11.07;;;;;;;1.85;69.82;94669.56;5087343;28;20176;-69
2023/11/30 07:31:04;;;;;;;11.10;10.00;;;;;;;1.92;69.64;94661.59;5087086;28;20415;-70
2023/11/30 07:33:30;;;;;;;22.60;10.50;;;;;;;1.79;69.81;94661.19;5077723;28;20496;-67
2023/11/30 07:35:55;;;;;;;10.47;9.37;;;;;;;1.77;69.77;94656.09;5067588;28;20225;-67
2023/11/30 07:38:20;;;;;;;16.27;9.83;;;;;;;1.85;69.94;94654.06;5067038;28;20170;-66
2023/11/30 07:40:47;;;;;;;11.20;9.90;;;;;;;1.92;69.69;94659.84;5067770;28;20245;-68
2023/11/30 07:43:12;;;;;;;13.87;10.37;;;;;;;1.61;70.54;94670.50;5065957;28;20166;-69
2023/11/30 07:45:38;;;;;;;10.03;9.10;;;;;;;1.36;72.00;94681.72;5067098;28;20425;-68
2023/11/30 07:48:04;;;;;;;15.40;9.63;;;;;;;1.38;71.19;94684.25;5065463;28;20218;-68
2023/11/30 07:50:30;;;;;;;11.33;9.00;;;;;;;0.86;73.38;94688.66;5078821;28;20415;-66
2023/11/30 07:52:55;;;;;;;15.50;9.10;;;;;;;1.22;73.19;94687.38;5087662;28;20625;-67
2023/11/30 07:55:21;;;;;;;11.50;10.30;;;;;;;1.35;73.14;94674.88;5086429;28;20580;-69
2023/11/30 07:57:47;;;;;;;12.17;10.03;;;;;;;1.15;73.52;94675.56;5086444;28;20201;-68
2023/11/30 08:00:15;;;;;;;11.03;9.90;;;;;;;1.10;73.90;94685.22;5086591;28;20748;-69
2023/11/30 08:02:41;;;;;;;13.00;9.57;;;;;;;1.15;73.39;94682.47;5059712;28;20416;-69
2023/11/30 08:05:06;;;;;;;13.23;9.80;;;;;;;1.27;72.83;94689.78;5044967;28;20437;-66
2023/11/30 08:07:33;;;;;;;17.83;10.27;;;;;;;1.04;74.15;94686.28;5055191;28;20416;-69
2023/11/30 08:09:58;;;;;;;20.80;13.77;;;;;;;1.29;73.70;94695.75;5066868;28;20166;-70
2023/11/30 08:12:23;;;;;;;11.50;10.30;;;;;;;1.25;73.03;94692.44;5070427;28;20403;-70
2023/11/30 08:14:49;;;;;;;17.73;10.70;;;;;;;1.35;73.12;94684.38;5070325;28;20224;-69
2023/11/30 08:17:14;;;;;;;13.37;9.43;;;;;;;1.43;72.83;94677.19;5057285;28;20170;-69
2023/11/30 08:19:40;;;;;;;13.77;9.63;;;;;;;1.45;72.81;94685.72;5067992;28;20369;-67
2023/11/30 08:22:06;;;;;;;12.30;9.50;;;;;;;1.59;71.84;94682.63;5055738;28;20185;-68
2023/11/30 08:24:32;;;;;;;10.87;7.53;;;;;;;1.44;71.67;94684.88;5069948;28;20251;-69
2023/11/30 08:26:59;;;;;;;13.07;9.50;;;;;;;1.57;71.24;94687.03;5073979;28;20886;-67
2023/11/30 08:29:24;;;;;;;9.87;8.60;;;;;;;1.30;72.12;94679.38;5076735;28;20174;-66
2023/11/30 08:31:50;;;;;;;13.07;10.33;;;;;;;1.37;72.38;94687.72;5083851;28;20599;-67
2023/11/30 08:34:15;;;;;;;10.00;8.87;;;;;;;1.45;72.23;94694.31;5065056;28;20197;-68
2023/11/30 08:36:41;;;;;;;11.13;8.87;;;;;;;1.50;72.12;94693.31;5074713;28;20710;-68
2023/11/30 08:39:07;;;;;;;13.13;9.47;;;;;;;1.48;71.90;94689.03;5072369;28;20323;-67
2023/11/30 08:41:36;;;;;;;10.87;9.23;;;;;;;1.74;71.01;94692.41;5071619;28;20174;-68
2023/11/30 08:44:02;;;;;;;9.90;7.97;;;;;;;1.56;72.06;94685.31;5064114;28;20467;-67
2023/11/30 08:46:27;;;;;;;10.77;8.73;;;;;;;1.48;71.96;94678.69;5079378;28;20480;-68
2023/11/30 08:48:52;;;;;;;8.93;7.60;;;;;;;1.42;72.89;94678.09;5087836;28;20924;-68
2023/11/30 08:51:18;;;;;;;9.67;8.53;;;;;;;1.06;73.79;94678.47;5092100;28;20176;-67
2023/11/30 08:53:43;;;;;;;15.23;9.23;;;;;;;0.91;75.13;94682.41;5090649;28;20177;-67
2023/11/30 08:56:10;;;;;;;12.33;8.63;;;;;;;1.13;74.34;94682.50;5090087;28;20607;-68
2023/11/30 08:58:35;;;;;;;11.60;8.40;;;;;;;0.87;75.93;94682.56;5089648;28;20302;-68
2023/11/30 09:01:01;;;;;;;10.27;7.30;;;;;;;0.83;76.41;94681.84;5090271;28;21056;-67
2023/11/30 09:03:26;;;;;;;11.00;8.10;;;;;;;1.21;75.49;94672.78;5068832;28;20189;-66
2023/11/30 09:05:52;;;;;;;9.40;7.87;;;;;;;1.27;75.12;94671.69;5070322;28;20186;-68
2023/11/30 09:08:17;;;;;;;10.40;9.17;;;;;;;1.26;75.56;94657.94;5069830;28;20181;-68
2023/11/30 09:10:43;;;;;;;19.03;9.80;;;;;;;1.42;75.06;94647.91;5069679;28;20169;-68
2023/11/30 09:13:09;;;;;;;10.30;8.90;;;;;;;1.68;74.11;94639.19;5070169;28;20243;-68
2023/11/30 09:15:34;;;;;;;11.27;8.27;;;;;;;1.37;76.18;94652.41;5069638;28;21356;-67
2023/11/30 09:18:01;;;;;;;10.50;8.47;;;;;;;1.31;76.66;94660.38;5075697;28;20241;-68
2023/11/30 09:20:27;;;;;;;11.17;8.83;;;;;;;1.58;75.55;94660.25;5079953;28;20552;-68
2023/11/30 09:22:53;;;;;;;11.73;8.33;;;;;;;1.73;74.74;94664.88;5081867;28;20401;-68
2023/11/30 09:25:18;;;;;;;11.03;7.80;;;;;;;1.48;76.13;94670.94;5077406;28;20197;-67
2023/11/30 09:27:44;;;;;;;13.17;7.43;;;;;;;1.71;75.07;94664.09;5070491;28;20256;-69
2023/11/30 09:30:10;;;;;;;16.03;7.83;;;;;;;1.69;75.04;94658.13;5069196;28;20170;-68
2023/11/30 09:32:36;;;;;;;8.77;7.33;;;;;;;1.66;76.05;94664.25;5066834;28;20271;-68
2023/11/30 09:35:02;;;;;;;11.87;8.40;;;;;;;1.70;75.87;94659.78;5048612;28;20425;-67
2023/11/30 09:37:32;;;;;;;8.27;7.53;;;;;;;1.50;76.80;94662.28;5049272;28;20405;-69
2023/11/30 09:39:57;;;;;;;10.53;6.80;;;;;;;1.63;75.87;94663.50;5048354;28;20835;-68
2023/11/30 09:42:26;;;;;;;12.40;8.10;;;;;;;1.63;75.59;94664.38;5048707;28;20406;-68
2023/11/30 09:44:58;;;;;;;14.17;6.40;;;;;;;1.67;75.42;94653.00;5050653;28;20700;-67
2023/11/30 09:47:24;;;;;;;10.00;6.07;;;;;;;1.73;75.48;94646.78;5048795;28;20428;-68
2023/11/30 09:49:49;;;;;;;6.30;5.20;;;;;;;1.67;75.66;94637.47;5072732;28;20415;-69
2023/11/30 09:52:14;;;;;;;8.10;5.90;;;;;;;1.64;75.93;94645.38;5088494;28;20173;-67
2023/11/30 09:54:40;;;;;;;9.03;6.10;;;;;;;1.77;75.78;94640.59;5087882;28;20196;-67
2023/11/30 09:57:05;;;;;;;12.83;5.60;;;;;;;1.86;75.42;94639.38;5087951;28;20172;-68
2023/11/30 09:59:30;;;;;;;6.93;4.60;;;;;;;1.76;75.28;94630.28;5088251;28;20197;-68
2023/11/30 10:01:58;;;;;;;6.03;5.43;;;;;;;1.65;75.79;94625.50;5088057;28;20174;-68
2023/11/30 10:04:27;;;;;;;7.23;5.10;;;;;;;1.76;75.83;94619.94;5090865;28;20196;-68
2023/11/30 10:06:55;;;;;;;6.63;4.73;;;;;;;2.01;75.14;94610.34;5087998;28;20891;-68
2023/11/30 10:09:21;;;;;;;7.50;5.03;;;;;;;1.95;75.25;94605.41;5088228;28;20441;-68
2023/11/30 10:11:46;;;;;;;13.70;6.90;;;;;;;2.29;74.51;94596.28;5087762;28;20432;-69
2023/11/30 10:14:12;;;;;;;11.70;6.17;;;;;;;2.16;74.93;94597.69;5086625;28;20249;-69
2023/11/30 10:16:37;;;;;;;13.30;6.47;;;;;;;2.38;74.20;94590.72;5084372;28;20188;-68
2023/11/30 10:19:06;;;;;;;10.73;6.00;;;;;;;2.33;74.34;94588.34;5071252;28;20201;-68
2023/11/30 10:21:31;;;;;;;14.00;5.97;;;;;;;2.44;74.12;94597.44;5052385;28;20194;-68
2023/11/30 10:23:57;;;;;;;13.10;7.13;;;;;;;2.52;73.96;94590.16;5046867;28;20492;-67
2023/11/30 10:26:24;;;;;;;21.70;7.20;;;;;;;2.58;73.59;94587.34;5049356;28;20190;-69
2023/11/30 10:28:54;;;;;;;9.87;6.10;;;;;;;2.59;73.56;94586.41;5072634;28;20657;-67
2023/11/30 10:31:22;;;;;;;8.60;5.90;;;;;;;2.64;73.55;94588.81;5078818;28;20420;-67
2023/11/30 10:33:55;;;;;;;7.57;5.53;;;;;;;2.45;74.18;94596.50;5054547;28;20844;-68
2023/11/30 10:36:27;;;;;;;8.10;6.30;;;;;;;2.45;73.77;94584.41;5064492;28;20408;-67
2023/11/30 10:39:11;;;;;;;7.90;5.77;;;;;;;2.52;73.43;94585.00;5067238;28;20436;-69
2023/11/30 10:41:49;;;;;;;6.70;6.00;;;;;;;2.45;73.91;94578.38;5067357;28;20404;-67
2023/11/30 10:44:28;;;;;;;7.43;5.33;;;;;;;2.64;73.74;94576.69;5063307;28;20823;-68
2023/11/30 10:47:00;;;;;;;8.70;6.17;;;;;;;2.62;73.48;94554.38;5055069;28;20894;-68
2023/11/30 10:49:27;;;;;;;6.93;6.20;;;;;;;2.19;74.57;94538.88;5053343;28;20419;-67
2023/11/30 10:51:59;;;;;;;7.23;5.33;;;;;;;1.97;75.62;94543.25;5072419;28;20503;-68
2023/11/30 10:54:44;;;;;;;8.37;6.20;;;;;;;2.28;75.22;94541.09;5047300;28;20441;-68
2023/11/30 10:57:10;;;;;;;6.33;5.60;;;;;;;2.15;74.81;94539.06;5047207;28;20500;-68
2023/11/30 10:59:36;;;;;;;10.67;6.40;;;;;;;2.22;74.95;94532.75;5054577;28;20469;-68
2023/11/30 11:02:05;;;;;;;7.70;6.20;;;;;;;2.26;74.41;94529.13;5062887;28;20424;-68
2023/11/30 11:04:32;;;;;;;8.37;7.33;;;;;;;2.33;74.60;94525.38;5066883;28;20202;-67
2023/11/30 11:07:07;;;;;;;8.47;7.67;;;;;;;2.46;74.52;94520.53;5066381;28;20408;-68
2023/11/30 11:09:43;;;;;;;8.23;6.97;;;;;;;2.56;74.19;94544.28;5066440;28;20823;-68
2023/11/30 11:12:39;;;;;;;8.43;7.60;;;;;;;2.85;73.05;94540.44;5057875;28;20431;-68
2023/11/30 11:15:08;;;;;;;10.00;7.43;;;;;;;2.83;73.49;94529.28;5061036;28;20479;-66
2023/11/30 11:17:45;;;;;;;11.80;8.57;;;;;;;2.92;73.51;94523.72;5062067;28;20471;-66
2023/11/30 11:20:20;;;;;;;8.23;7.37;;;;;;;2.84;73.42;94534.41;5060646;28;20487;-69
2023/11/30 11:22:47;;;;;;;9.20;7.77;;;;;;;2.87;73.60;94536.88;5070691;28;20441;-68
2023/11/30 11:25:16;;;;;;;10.50;7.80;;;;;;;2.85;73.76;94538.69;5063321;28;20467;-68
2023/11/30 11:27:41;;;;;;;10.67;8.60;;;;;;;2.68;73.99;94534.22;5062499;28;20523;-69